Fort Mill, South Carolina
Current Conditions -  °F | °C
As of 12:54 AM on Thursday 23 Oct 2014 (Local Time) from KUZA Reporting Station
Clear Clear  
Wind Chill: 41°   Ceiling: Unl
Heat Index: 44°   Visibility: 10mi
Dew Point: 39°   Wind: 6mph
Humidity: 82%   Direction: 340°NNW
Pressure: 30.11"   Gusts: NA
Location:  35.01°N, 80.94°W
Report Text: KUZA 230454Z AUTO 34005KT 10SM CLR 07/04 A3011 RMK AO2 SLP193 T00670039 401890056
Loading
Personal Weather Stations






























Interactive Weather Map
Tropical Storm Tracking
New forecast layout! Learn more

10-Day Weather Forecast

Advertisements
Track Severe Weather on mobile